Billings, MT

6:51 PM MDT on May 22, 2015 (GMT -0600)
Downtown Billings | | Change Station
CLOSE
Current Station
Personal Weather Station
Location: Billings, MT
Elevation: 3127 ft
Nearby Weather Stations

Elev 3127 ft 45.78 °N, 108.50 °W | Updated 23 minutes ago

Overcast
Overcast
68.8 °F
Feels Like 68.8 °F
N
13.0
Wind Variable Wind from ENE
Gusts 18.6 mph

Today
High -- | Low -- °F
--% Chance of Precip.
Yesterday
High -- | Low -- °F
Precip. -- in
5:35 AM 8:46 PM
Waxing Crescent, 25% visible
Pressure 29.85 in
Visibility 10.0 miles
Clouds Scattered Clouds 5500 ft
Mostly Cloudy 9000 ft
Dew Point 47 °F
Humidity 45%
Rainfall -999.00 in
Snow Depth Not available.
UV 1 out of 12
Pollen 8.20 out of 12
Air Quality Not available.
Flu Activity Sporadic
METAR KBIL 222353Z 11013KT 10SM TS SCT055CB BKN090 20/07 A2989 RMK AO2 TSB51 SLP107 OCNL LTGIC VC S TS S T02000067 10211 20156 56009

More Conditions Fewer Conditions

Pressure 29.85 in
Visibility 10.0 miles
Clouds Scattered Clouds 5500 ft
Mostly Cloudy 9000 ft
Dew Point 47 °F
Humidity 45%
Rainfall -999.00 in
Snow Depth Not available.
UV 1 out of 12
Pollen 8.20 out of 12
Air Quality Not available.
Flu Activity Sporadic
METAR KBIL 222353Z 11013KT 10SM TS SCT055CB BKN090 20/07 A2989 RMK AO2 TSB51 SLP107 OCNL LTGIC VC S TS S T02000067 10211 20156 56009

More Conditions Fewer Conditions

10-Day Weather Forecast

Almanac

Astronomy

May. 22, 2015 Rise Set
Actual Time
Civil Twilight
Nautical Twilight
Astronomical Twilight
Moon
Length of Visible Light
Length of Day
Tomorrow will be .
, % of the Moon is Illuminated

Today's Extremes

State Highs State Lows

Community

WunderPhotos

Upload Photos

1,823,350 photos uploaded!

WunderBlogs® & News

Nearby

Air Quality

  Air Quality AQ Index Pollutant
Not available.

Snow Depth

Station Depth Elevation

Earthquake Activity

City Distance Mag. Time & Date
Minimum magnitude displayed is 2.5.

Coastal Water Temperatures

Place Temperature

Stations

Nearby Weather Stations

Station Location Temp. Windchill Dew Point Humidity Wind Precip. Elev Updated Type